Time;durP1;ratioP1;P1;durP2;ratioP2;P2;SDS_P1;SDS_P2;PMS_P1;PMS_P2;Temp;Humidity;BMP_temperature;BMP_pressure;BME280_temperature;BME280_humidity;BME280_pressure;Samples;Min_cycle;Max_cycle;Signal;HPM_P1;HPM_P2
2023/09/07 00:04:47;;;;;;;3.50;3.00;;;;;;;;;;10184443;28;20032;-69
2023/09/07 00:09:39;;;;;;;4.47;3.85;;;;;;;;;;10185332;28;20051;-70
2023/09/07 00:14:31;;;;;;;5.80;3.88;;;;;;;;;;10227084;27;20122;-69
2023/09/07 00:19:23;;;;;;;8.05;4.55;;;;;;;;;;10223092;28;20390;-68
2023/09/07 00:24:16;;;;;;;5.00;4.35;;;;;;;;;;10191915;28;20101;-69
2023/09/07 00:29:08;;;;;;;4.00;3.60;;;;;;;;;;10225680;28;20047;-69
2023/09/07 00:34:00;;;;;;;3.30;2.80;;;;;;;;;;10193365;28;20051;-70
2023/09/07 00:38:52;;;;;;;3.03;2.75;;;;;;;;;;10149133;28;20059;-68
2023/09/07 00:43:44;;;;;;;4.93;3.13;;;;;;;;;;10192956;28;20047;-69
2023/09/07 00:48:37;;;;;;;6.95;3.67;;;;;;;;;;10188158;28;20154;-69
2023/09/07 00:53:29;;;;;;;6.38;3.33;;;;;;;;;;10184926;28;20083;-69
2023/09/07 00:58:21;;;;;;;6.40;3.20;;;;;;;;;;10165787;28;20079;-69
2023/09/07 01:03:14;;;;;;;3.80;3.42;;;;;;;;;;10183149;28;20040;-70
2023/09/07 01:08:26;;;;;;;4.15;2.78;;;;;;;;;;10188533;28;20043;-69
2023/09/07 01:13:19;;;;;;;7.53;3.85;;;;;;;;;;10153011;28;20075;-69
2023/09/07 01:18:12;;;;;;;4.30;3.88;;;;;;;;;;10180017;28;20068;-69
2023/09/07 01:23:24;;;;;;;3.40;2.90;;;;;;;;;;10155178;28;20059;-68
2023/09/07 01:28:16;;;;;;;3.58;3.28;;;;;;;;;;10199287;28;20044;-68
2023/09/07 01:33:08;;;;;;;6.93;3.78;;;;;;;;;;10188732;28;20054;-69
2023/09/07 01:38:01;;;;;;;6.53;4.38;;;;;;;;;;10171905;28;20056;-68
2023/09/07 01:42:53;;;;;;;7.80;7.07;;;;;;;;;;10229133;28;20035;-71
2023/09/07 01:47:45;;;;;;;8.80;7.38;;;;;;;;;;10216307;28;20075;-71
2023/09/07 01:52:37;;;;;;;13.15;7.93;;;;;;;;;;10211458;28;20071;-68
2023/09/07 01:57:29;;;;;;;8.93;7.95;;;;;;;;;;10226926;28;20047;-70
2023/09/07 02:02:21;;;;;;;8.48;7.03;;;;;;;;;;10187321;28;20052;-71
2023/09/07 02:07:14;;;;;;;9.05;5.93;;;;;;;;;;10218778;28;20408;-70
2023/09/07 02:12:06;;;;;;;8.85;5.78;;;;;;;;;;10185789;28;20135;-71
2023/09/07 02:16:58;;;;;;;6.72;5.60;;;;;;;;;;10229998;28;20127;-71
2023/09/07 02:21:52;;;;;;;6.95;6.25;;;;;;;;;;10194734;28;20080;-70
2023/09/07 02:26:45;;;;;;;9.48;4.75;;;;;;;;;;10207527;28;20063;-71
2023/09/07 02:31:39;;;;;;;4.85;4.43;;;;;;;;;;10169126;28;20055;-71
2023/09/07 02:36:31;;;;;;;5.13;4.63;;;;;;;;;;10201008;28;20047;-71
2023/09/07 02:41:23;;;;;;;6.20;4.80;;;;;;;;;;10211341;28;20127;-71
2023/09/07 02:46:16;;;;;;;5.30;3.60;;;;;;;;;;10176437;28;20492;-70
2023/09/07 02:51:08;;;;;;;6.05;4.13;;;;;;;;;;10198592;28;20362;-70
2023/09/07 02:56:04;;;;;;;4.95;4.25;;;;;;;;;;10185646;28;20056;-70
2023/09/07 03:00:56;;;;;;;5.60;4.07;;;;;;;;;;10145455;28;20053;-71
2023/09/07 03:05:50;;;;;;;9.32;4.05;;;;;;;;;;10180497;28;20047;-71
2023/09/07 03:10:43;;;;;;;11.75;5.65;;;;;;;;;;10168446;28;20109;-70
2023/09/07 03:15:35;;;;;;;3.80;3.38;;;;;;;;;;10168764;28;20094;-71
2023/09/07 03:20:33;;;;;;;5.68;3.47;;;;;;;;;;10160283;28;20470;-70
2023/09/07 03:25:26;;;;;;;4.25;3.72;;;;;;;;;;10172563;28;20110;-69
2023/09/07 03:30:18;;;;;;;5.15;4.00;;;;;;;;;;10145028;28;20045;-70
2023/09/07 03:35:11;;;;;;;5.93;4.25;;;;;;;;;;10156273;28;20048;-70
2023/09/07 03:40:05;;;;;;;4.43;4.03;;;;;;;;;;10145216;28;20053;-71
2023/09/07 03:44:58;;;;;;;3.92;3.55;;;;;;;;;;10156612;28;20131;-71
2023/09/07 03:49:52;;;;;;;4.07;3.45;;;;;;;;;;10143104;28;20049;-71
2023/09/07 03:54:44;;;;;;;4.72;4.32;;;;;;;;;;10158582;28;20047;-70
2023/09/07 03:59:36;;;;;;;5.00;3.55;;;;;;;;;;10197596;28;20532;-71
2023/09/07 04:04:28;;;;;;;4.13;3.72;;;;;;;;;;10198198;28;20071;-71
2023/09/07 04:09:20;;;;;;;6.30;4.07;;;;;;;;;;10184693;28;20048;-70
2023/09/07 04:14:13;;;;;;;7.25;3.97;;;;;;;;;;10192491;28;20040;-70
2023/09/07 04:19:04;;;;;;;4.28;3.88;;;;;;;;;;10206742;28;20067;-71
2023/09/07 04:23:56;;;;;;;3.95;3.65;;;;;;;;;;10209743;28;20035;-69
2023/09/07 04:28:48;;;;;;;4.38;3.97;;;;;;;;;;10212548;28;20044;-71
2023/09/07 04:33:40;;;;;;;4.32;3.92;;;;;;;;;;10171624;28;20385;-70
2023/09/07 04:38:32;;;;;;;3.75;3.20;;;;;;;;;;10168542;28;20047;-71
2023/09/07 04:43:24;;;;;;;8.38;4.18;;;;;;;;;;10168921;28;20063;-70
2023/09/07 04:48:16;;;;;;;7.38;3.78;;;;;;;;;;10174126;28;20070;-71
2023/09/07 04:53:08;;;;;;;5.70;4.20;;;;;;;;;;10205582;28;20043;-71
2023/09/07 04:58:00;;;;;;;5.00;4.07;;;;;;;;;;10207847;28;20139;-70
2023/09/07 05:02:52;;;;;;;5.85;4.45;;;;;;;;;;10189854;28;20085;-70
2023/09/07 05:07:44;;;;;;;6.20;4.40;;;;;;;;;;10189356;28;20040;-71
2023/09/07 05:12:36;;;;;;;6.60;5.00;;;;;;;;;;10218075;28;20047;-70
2023/09/07 05:17:28;;;;;;;6.78;4.93;;;;;;;;;;10213336;28;20047;-71
2023/09/07 05:22:22;;;;;;;6.30;3.90;;;;;;;;;;10202309;28;20044;-71
2023/09/07 05:27:14;;;;;;;5.47;4.93;;;;;;;;;;10185380;28;20047;-69
2023/09/07 05:32:06;;;;;;;5.88;4.13;;;;;;;;;;10205183;28;20412;-69
2023/09/07 05:36:58;;;;;;;5.00;4.50;;;;;;;;;;10219147;28;20079;-71
2023/09/07 05:41:50;;;;;;;7.88;4.65;;;;;;;;;;10200706;28;20044;-70
2023/09/07 05:46:42;;;;;;;4.35;3.95;;;;;;;;;;10167786;28;20040;-74
2023/09/07 05:51:34;;;;;;;19.92;4.68;;;;;;;;;;10185933;28;20450;-73
2023/09/07 05:56:26;;;;;;;6.88;4.13;;;;;;;;;;10193911;28;20093;-73
2023/09/07 06:01:18;;;;;;;5.57;4.70;;;;;;;;;;10197413;28;20130;-73
2023/09/07 06:06:11;;;;;;;9.60;4.80;;;;;;;;;;10168997;28;20569;-72
2023/09/07 06:11:03;;;;;;;7.32;5.45;;;;;;;;;;10170623;28;20182;-74
2023/09/07 06:15:54;;;;;;;6.13;4.38;;;;;;;;;;10169748;28;20040;-74
2023/09/07 06:20:47;;;;;;;8.05;5.07;;;;;;;;;;10167042;28;20063;-74
2023/09/07 06:25:39;;;;;;;7.38;5.43;;;;;;;;;;10171583;28;20142;-74
2023/09/07 06:30:31;;;;;;;6.15;5.57;;;;;;;;;;10209674;28;20058;-71
2023/09/07 06:35:23;;;;;;;6.20;4.60;;;;;;;;;;10226780;28;20123;-70
2023/09/07 06:40:17;;;;;;;6.47;4.97;;;;;;;;;;10203720;28;20070;-71
2023/09/07 06:45:13;;;;;;;5.80;4.65;;;;;;;;;;10197781;28;20121;-72
2023/09/07 06:50:06;;;;;;;4.82;4.43;;;;;;;;;;10165615;28;20036;-72
2023/09/07 06:54:58;;;;;;;9.63;5.05;;;;;;;;;;10183589;28;20388;-72
2023/09/07 06:59:50;;;;;;;8.43;5.15;;;;;;;;;;10174702;28;20100;-72
2023/09/07 07:04:43;;;;;;;6.45;4.10;;;;;;;;;;10165364;28;20465;-71
2023/09/07 07:09:36;;;;;;;6.50;5.22;;;;;;;;;;10166394;28;20036;-71
2023/09/07 07:14:28;;;;;;;6.63;4.97;;;;;;;;;;10166305;28;20040;-72
2023/09/07 07:19:20;;;;;;;9.68;5.75;;;;;;;;;;10210111;28;20366;-72
2023/09/07 07:24:12;;;;;;;6.35;5.75;;;;;;;;;;10209255;28;20120;-70
2023/09/07 07:29:04;;;;;;;9.88;5.43;;;;;;;;;;10220999;28;20044;-71
2023/09/07 07:33:57;;;;;;;8.93;5.45;;;;;;;;;;10183853;28;20423;-72
2023/09/07 07:38:49;;;;;;;7.13;6.05;;;;;;;;;;10189029;28;20052;-72
2023/09/07 07:43:41;;;;;;;6.35;5.75;;;;;;;;;;10206663;28;20044;-72
2023/09/07 07:48:35;;;;;;;8.07;5.55;;;;;;;;;;10199641;28;20370;-70
2023/09/07 07:53:28;;;;;;;7.75;6.50;;;;;;;;;;10209195;28;20188;-71
2023/09/07 07:58:21;;;;;;;12.65;6.50;;;;;;;;;;10207340;28;20062;-72
2023/09/07 08:03:13;;;;;;;25.42;8.10;;;;;;;;;;10185212;28;20513;-71
2023/09/07 08:08:05;;;;;;;8.05;5.65;;;;;;;;;;10199167;28;20044;-71
2023/09/07 08:12:58;;;;;;;6.97;5.78;;;;;;;;;;10200932;28;20086;-72
2023/09/07 08:17:50;;;;;;;8.95;7.15;;;;;;;;;;10186033;28;20443;-72
2023/09/07 08:22:42;;;;;;;8.57;6.47;;;;;;;;;;10160875;28;20488;-71
2023/09/07 08:27:36;;;;;;;8.38;5.95;;;;;;;;;;10181895;28;20079;-72
2023/09/07 08:32:28;;;;;;;7.30;6.07;;;;;;;;;;10204493;28;20047;-72
2023/09/07 08:37:20;;;;;;;12.05;6.53;;;;;;;;;;10219816;28;20048;-71
2023/09/07 08:42:16;;;;;;;9.88;6.30;;;;;;;;;;10186701;28;20040;-72
2023/09/07 08:47:08;;;;;;;10.27;7.05;;;;;;;;;;10193470;28;20472;-71
2023/09/07 08:52:01;;;;;;;9.00;6.10;;;;;;;;;;10188210;28;20131;-72
2023/09/07 08:56:56;;;;;;;9.40;6.10;;;;;;;;;;10197138;28;20044;-72
2023/09/07 09:01:48;;;;;;;9.70;6.82;;;;;;;;;;10172214;28;20056;-71
2023/09/07 09:06:40;;;;;;;8.23;5.82;;;;;;;;;;10190874;28;20036;-72
2023/09/07 09:11:32;;;;;;;6.75;6.07;;;;;;;;;;10188686;28;20044;-71
2023/09/07 09:16:25;;;;;;;9.88;6.82;;;;;;;;;;10188323;28;20048;-72
2023/09/07 09:21:17;;;;;;;10.40;7.53;;;;;;;;;;10187316;28;20048;-71
2023/09/07 09:26:09;;;;;;;7.78;5.85;;;;;;;;;;10194113;28;20039;-72
2023/09/07 09:31:04;;;;;;;7.30;6.25;;;;;;;;;;10212982;28;20131;-72
2023/09/07 09:35:57;;;;;;;13.48;7.70;;;;;;;;;;10188947;28;20048;-72
2023/09/07 09:40:49;;;;;;;9.35;6.03;;;;;;;;;;10188726;28;20076;-71
2023/09/07 09:45:41;;;;;;;7.43;5.70;;;;;;;;;;10172316;28;20428;-72
2023/09/07 09:50:37;;;;;;;6.22;5.60;;;;;;;;;;10187827;28;20041;-71
2023/09/07 09:55:31;;;;;;;8.95;5.50;;;;;;;;;;10216468;28;20040;-73
2023/09/07 10:00:26;;;;;;;6.10;5.40;;;;;;;;;;10215559;28;20097;-72
2023/09/07 10:05:18;;;;;;;12.15;5.55;;;;;;;;;;10187783;28;20052;-73
2023/09/07 10:10:14;;;;;;;7.50;5.65;;;;;;;;;;10205983;28;20040;-73
2023/09/07 10:15:07;;;;;;;7.85;5.93;;;;;;;;;;10186396;28;20052;-74
2023/09/07 10:20:05;;;;;;;9.57;6.13;;;;;;;;;;10187300;28;20097;-74
2023/09/07 10:24:57;;;;;;;8.07;6.57;;;;;;;;;;10206307;28;20040;-75
2023/09/07 10:29:52;;;;;;;10.57;6.45;;;;;;;;;;10212702;28;20044;-74
2023/09/07 10:34:47;;;;;;;8.48;6.25;;;;;;;;;;10189674;28;20036;-74
2023/09/07 10:39:42;;;;;;;6.43;4.97;;;;;;;;;;10212373;28;20510;-74
2023/09/07 10:44:38;;;;;;;7.95;5.00;;;;;;;;;;10186100;28;20056;-73
2023/09/07 10:49:30;;;;;;;9.65;6.22;;;;;;;;;;10186595;28;20638;-74
2023/09/07 10:54:23;;;;;;;11.13;7.45;;;;;;;;;;10185692;28;20044;-74
2023/09/07 10:59:17;;;;;;;7.13;6.32;;;;;;;;;;10216981;28;20807;-72
2023/09/07 11:04:11;;;;;;;6.68;6.00;;;;;;;;;;10221421;28;20063;-74
2023/09/07 11:09:08;;;;;;;7.28;5.82;;;;;;;;;;10212478;28;20098;-75
2023/09/07 11:14:05;;;;;;;5.88;5.10;;;;;;;;;;10184578;28;20101;-75
2023/09/07 11:18:58;;;;;;;6.93;6.15;;;;;;;;;;10199302;28;20067;-73
2023/09/07 11:23:51;;;;;;;6.22;5.72;;;;;;;;;;10203872;28;20071;-74
2023/09/07 11:28:46;;;;;;;7.15;6.10;;;;;;;;;;10190036;28;20100;-72
2023/09/07 11:33:38;;;;;;;8.32;6.28;;;;;;;;;;10212045;28;20094;-72
2023/09/07 11:38:36;;;;;;;8.77;6.18;;;;;;;;;;10207009;28;20036;-73
2023/09/07 11:43:27;;;;;;;4.77;4.33;;;;;;;;;;10206173;28;20035;-74
2023/09/07 11:48:19;;;;;;;6.25;4.18;;;;;;;;;;10183569;28;20064;-74
2023/09/07 11:53:11;;;;;;;6.55;4.28;;;;;;;;;;10197414;28;20048;-72
2023/09/07 11:58:07;;;;;;;7.30;4.18;;;;;;;;;;10203553;28;20101;-73
2023/09/07 12:02:59;;;;;;;5.00;4.60;;;;;;;;;;10188950;28;20048;-73
2023/09/07 12:07:51;;;;;;;7.47;4.35;;;;;;;;;;10192823;28;20043;-73
2023/09/07 12:12:44;;;;;;;4.53;4.15;;;;;;;;;;10189078;28;20044;-74
2023/09/07 12:17:36;;;;;;;8.45;4.55;;;;;;;;;;10181092;28;20059;-73
2023/09/07 12:22:28;;;;;;;4.20;3.72;;;;;;;;;;10188827;28;20696;-73
2023/09/07 12:27:20;;;;;;;4.50;4.10;;;;;;;;;;10191077;28;20048;-75
2023/09/07 12:32:15;;;;;;;3.47;3.17;;;;;;;;;;10213554;28;20056;-74
2023/09/07 12:37:07;;;;;;;8.55;4.40;;;;;;;;;;10192056;28;20047;-74
2023/09/07 12:41:59;;;;;;;4.45;4.05;;;;;;;;;;10188730;28;20040;-74
2023/09/07 12:46:51;;;;;;;5.03;4.03;;;;;;;;;;10208510;28;20050;-75
2023/09/07 12:51:44;;;;;;;5.05;4.03;;;;;;;;;;10181749;28;20040;-74
2023/09/07 12:56:36;;;;;;;6.03;4.28;;;;;;;;;;10192517;28;20056;-73
2023/09/07 13:01:29;;;;;;;4.18;3.78;;;;;;;;;;10205370;28;20056;-74
2023/09/07 13:06:21;;;;;;;6.72;3.75;;;;;;;;;;10198022;28;20123;-74
2023/09/07 13:11:13;;;;;;;6.40;3.90;;;;;;;;;;10179885;28;20051;-74
2023/09/07 13:16:05;;;;;;;5.30;4.13;;;;;;;;;;10181056;28;20355;-74
2023/09/07 13:21:00;;;;;;;6.93;3.90;;;;;;;;;;10181524;28;20101;-73
2023/09/07 13:25:52;;;;;;;4.97;3.65;;;;;;;;;;10185561;28;20154;-74
2023/09/07 13:30:44;;;;;;;7.50;3.75;;;;;;;;;;10218348;28;20054;-73
2023/09/07 13:35:36;;;;;;;5.93;3.78;;;;;;;;;;10228092;28;20465;-74
2023/09/07 13:40:29;;;;;;;3.83;3.40;;;;;;;;;;10212333;28;20146;-70
2023/09/07 13:45:21;;;;;;;4.60;3.33;;;;;;;;;;10199716;28;20092;-72
2023/09/07 13:50:13;;;;;;;6.18;3.75;;;;;;;;;;10183981;28;20056;-72
2023/09/07 13:55:05;;;;;;;7.80;3.80;;;;;;;;;;10183671;28;20044;-74
2023/09/07 13:59:57;;;;;;;6.00;3.25;;;;;;;;;;10206423;28;20048;-72
2023/09/07 14:04:49;;;;;;;5.30;3.33;;;;;;;;;;10186424;28;20409;-71
2023/09/07 14:09:41;;;;;;;7.25;4.40;;;;;;;;;;10187708;28;20040;-73
2023/09/07 14:14:33;;;;;;;6.45;2.72;;;;;;;;;;10187889;28;20523;-72
2023/09/07 14:19:27;;;;;;;5.53;3.38;;;;;;;;;;10186295;28;20048;-73
2023/09/07 14:24:19;;;;;;;6.32;4.00;;;;;;;;;;10187289;28;20397;-73
2023/09/07 14:29:11;;;;;;;4.28;2.92;;;;;;;;;;10189079;28;20040;-72
2023/09/07 14:34:03;;;;;;;6.50;2.90;;;;;;;;;;10186079;28;20513;-74
2023/09/07 14:38:55;;;;;;;5.88;2.63;;;;;;;;;;10185649;28;20119;-72
2023/09/07 14:43:47;;;;;;;7.97;2.95;;;;;;;;;;10184222;28;20351;-73
2023/09/07 14:48:39;;;;;;;3.33;2.80;;;;;;;;;;10185078;28;20086;-73
2023/09/07 14:53:31;;;;;;;3.13;2.40;;;;;;;;;;10209844;28;20101;-73
2023/09/07 14:58:23;;;;;;;5.95;3.13;;;;;;;;;;10217919;28;20059;-73
2023/09/07 15:03:15;;;;;;;7.82;2.70;;;;;;;;;;10194930;28;20044;-73
2023/09/07 15:08:08;;;;;;;8.38;2.75;;;;;;;;;;10184555;28;20383;-74
2023/09/07 15:13:03;;;;;;;2.78;2.58;;;;;;;;;;10184270;28;20185;-72
2023/09/07 15:17:55;;;;;;;6.72;3.85;;;;;;;;;;10198081;28;20052;-73
2023/09/07 15:22:47;;;;;;;3.17;2.78;;;;;;;;;;10184919;28;20036;-73
2023/09/07 15:27:39;;;;;;;3.58;3.10;;;;;;;;;;10210896;28;20043;-72
2023/09/07 15:32:31;;;;;;;3.25;2.92;;;;;;;;;;10206546;28;20492;-73
2023/09/07 15:37:23;;;;;;;7.05;2.80;;;;;;;;;;10201279;28;20498;-74
2023/09/07 15:42:15;;;;;;;5.50;3.50;;;;;;;;;;10195720;28;20043;-73
2023/09/07 15:47:07;;;;;;;3.35;2.63;;;;;;;;;;10203970;28;20068;-74
2023/09/07 15:51:59;;;;;;;6.38;2.72;;;;;;;;;;10207681;28;20040;-73
2023/09/07 15:56:51;;;;;;;4.15;2.70;;;;;;;;;;10199007;28;20044;-73
2023/09/07 16:01:51;;;;;;;8.40;2.70;;;;;;;;;;10214847;28;20115;-72
2023/09/07 16:06:43;;;;;;;3.42;2.70;;;;;;;;;;10197854;28;20047;-73
2023/09/07 16:11:35;;;;;;;6.60;3.13;;;;;;;;;;10202425;28;20135;-73
2023/09/07 16:16:27;;;;;;;7.15;3.17;;;;;;;;;;10210115;28;20048;-73
2023/09/07 16:21:20;;;;;;;2.78;2.35;;;;;;;;;;10215284;28;20478;-72
2023/09/07 16:26:13;;;;;;;3.00;2.70;;;;;;;;;;10225424;28;20127;-73
2023/09/07 16:31:05;;;;;;;5.72;3.03;;;;;;;;;;10209790;28;20075;-73
2023/09/07 16:35:57;;;;;;;6.57;2.85;;;;;;;;;;10199590;28;20062;-72
2023/09/07 16:40:49;;;;;;;6.55;3.42;;;;;;;;;;10211039;28;20040;-73
2023/09/07 16:45:41;;;;;;;5.20;2.65;;;;;;;;;;10216300;28;20438;-73
2023/09/07 16:50:33;;;;;;;4.88;3.13;;;;;;;;;;10218270;28;20070;-75
2023/09/07 16:55:25;;;;;;;3.45;2.72;;;;;;;;;;10216061;28;20040;-72
2023/09/07 17:00:17;;;;;;;5.88;3.10;;;;;;;;;;10211605;28;20067;-73
2023/09/07 17:05:10;;;;;;;7.68;3.20;;;;;;;;;;10203149;28;20118;-73
2023/09/07 17:10:02;;;;;;;8.02;3.65;;;;;;;;;;10217486;28;20681;-74
2023/09/07 17:14:54;;;;;;;7.57;3.13;;;;;;;;;;10201411;28;20097;-73
2023/09/07 17:19:46;;;;;;;5.93;3.63;;;;;;;;;;10194804;28;20039;-73
2023/09/07 17:24:38;;;;;;;6.32;3.45;;;;;;;;;;10213557;28;20055;-72
2023/09/07 17:29:30;;;;;;;10.10;3.47;;;;;;;;;;10190105;28;20040;-74
2023/09/07 17:34:24;;;;;;;8.43;3.70;;;;;;;;;;10190398;28;20126;-74
2023/09/07 17:39:16;;;;;;;6.28;3.60;;;;;;;;;;10174857;28;20035;-72
2023/09/07 17:44:09;;;;;;;4.15;3.22;;;;;;;;;;10188747;28;20082;-77
2023/09/07 17:49:01;;;;;;;5.38;3.63;;;;;;;;;;10194681;28;20044;-77
2023/09/07 17:53:53;;;;;;;10.30;4.68;;;;;;;;;;10197804;28;20047;-76
2023/09/07 17:58:45;;;;;;;6.55;4.40;;;;;;;;;;10226580;28;20051;-74
2023/09/07 18:03:38;;;;;;;11.45;4.57;;;;;;;;;;10218165;28;20381;-74
2023/09/07 18:08:30;;;;;;;4.50;3.70;;;;;;;;;;10229825;28;20046;-74
2023/09/07 18:13:23;;;;;;;5.97;4.32;;;;;;;;;;10198027;28;20130;-75
2023/09/07 18:18:15;;;;;;;12.60;3.90;;;;;;;;;;10225175;28;20338;-76
2023/09/07 18:23:07;;;;;;;9.35;4.22;;;;;;;;;;10213489;28;20140;-76
2023/09/07 18:27:59;;;;;;;4.90;4.05;;;;;;;;;;10223889;28;20070;-75
2023/09/07 18:32:51;;;;;;;32.95;5.18;;;;;;;;;;10211458;28;20479;-75
2023/09/07 18:37:45;;;;;;;9.32;5.30;;;;;;;;;;10225464;28;20557;-75
2023/09/07 18:42:37;;;;;;;5.60;4.20;;;;;;;;;;10190402;28;20081;-73
2023/09/07 18:47:29;;;;;;;9.57;4.13;;;;;;;;;;10208518;28;20081;-76
2023/09/07 18:52:21;;;;;;;11.57;4.07;;;;;;;;;;10201243;28;20043;-76
2023/09/07 18:57:13;;;;;;;7.25;3.95;;;;;;;;;;10212698;28;20044;-75
2023/09/07 19:02:05;;;;;;;7.78;3.88;;;;;;;;;;10215248;28;20530;-75
2023/09/07 19:06:57;;;;;;;4.95;4.22;;;;;;;;;;10215493;28;20039;-75
2023/09/07 19:11:49;;;;;;;12.02;4.65;;;;;;;;;;10210362;28;20067;-74
2023/09/07 19:16:41;;;;;;;7.35;4.10;;;;;;;;;;10210126;28;20157;-75
2023/09/07 19:21:33;;;;;;;8.00;4.85;;;;;;;;;;10187775;28;20048;-75
2023/09/07 19:26:33;;;;;;;9.65;4.88;;;;;;;;;;10214229;28;20036;-74
2023/09/07 19:31:25;;;;;;;9.52;4.45;;;;;;;;;;10228512;28;20047;-74
2023/09/07 19:36:18;;;;;;;6.97;4.47;;;;;;;;;;10197845;28;20051;-75
2023/09/07 19:41:10;;;;;;;7.22;4.45;;;;;;;;;;10211672;28;20089;-75
2023/09/07 19:46:02;;;;;;;12.43;4.65;;;;;;;;;;10223779;28;20130;-75
2023/09/07 19:50:54;;;;;;;7.95;4.78;;;;;;;;;;10227140;28;20035;-75
2023/09/07 19:55:45;;;;;;;8.88;4.95;;;;;;;;;;10226459;28;20047;-75
2023/09/07 20:00:37;;;;;;;7.38;4.55;;;;;;;;;;10217728;28;20058;-73
2023/09/07 20:05:29;;;;;;;6.55;5.20;;;;;;;;;;10218184;27;20048;-74
2023/09/07 20:10:23;;;;;;;8.20;5.30;;;;;;;;;;10187932;28;20122;-75
2023/09/07 20:15:15;;;;;;;9.25;5.80;;;;;;;;;;10192230;28;20063;-74
2023/09/07 20:20:07;;;;;;;6.10;4.63;;;;;;;;;;10201782;28;20373;-75
2023/09/07 20:24:59;;;;;;;7.82;5.32;;;;;;;;;;10184306;28;21172;-73
2023/09/07 20:29:51;;;;;;;7.82;5.20;;;;;;;;;;10182583;28;20070;-75
2023/09/07 20:34:43;;;;;;;7.70;5.38;;;;;;;;;;10185062;28;20040;-74
2023/09/07 20:39:35;;;;;;;6.88;5.00;;;;;;;;;;10184957;28;20101;-74
2023/09/07 20:44:27;;;;;;;8.27;4.68;;;;;;;;;;10196864;28;20527;-75
2023/09/07 20:49:21;;;;;;;4.65;4.25;;;;;;;;;;10198624;28;20040;-75
2023/09/07 20:54:13;;;;;;;6.22;4.43;;;;;;;;;;10185059;28;20117;-75
2023/09/07 20:59:06;;;;;;;11.82;5.70;;;;;;;;;;10185036;28;20614;-74
2023/09/07 21:03:58;;;;;;;7.28;4.60;;;;;;;;;;10198275;28;20134;-75
2023/09/07 21:08:50;;;;;;;8.25;4.47;;;;;;;;;;10223567;28;20539;-75
2023/09/07 21:13:42;;;;;;;7.72;4.80;;;;;;;;;;10225795;28;20047;-75
2023/09/07 21:18:34;;;;;;;5.00;4.60;;;;;;;;;;10225571;28;20458;-75
2023/09/07 21:23:26;;;;;;;6.90;6.00;;;;;;;;;;10225727;28;20136;-75
2023/09/07 21:28:18;;;;;;;5.68;4.50;;;;;;;;;;10225842;28;20051;-75
2023/09/07 21:33:10;;;;;;;6.10;4.90;;;;;;;;;;10212242;28;20050;-73
2023/09/07 21:38:02;;;;;;;6.82;4.95;;;;;;;;;;10224260;28;20521;-75
2023/09/07 21:42:54;;;;;;;6.57;4.95;;;;;;;;;;10194466;28;20048;-75
2023/09/07 21:47:46;;;;;;;5.85;5.28;;;;;;;;;;10183648;28;20106;-75
2023/09/07 21:52:38;;;;;;;5.68;4.78;;;;;;;;;;10189199;28;20059;-74
2023/09/07 21:57:30;;;;;;;11.05;5.43;;;;;;;;;;10189314;28;20044;-72
2023/09/07 22:02:23;;;;;;;5.47;4.97;;;;;;;;;;10191716;28;20047;-75
2023/09/07 22:07:15;;;;;;;6.30;5.25;;;;;;;;;;10193174;28;20106;-74
2023/09/07 22:12:07;;;;;;;12.40;4.75;;;;;;;;;;10197632;28;20039;-75
2023/09/07 22:17:00;;;;;;;5.18;4.75;;;;;;;;;;10228597;28;20079;-73
2023/09/07 22:21:52;;;;;;;6.25;5.60;;;;;;;;;;10190389;28;20048;-74
2023/09/07 22:26:44;;;;;;;8.25;5.15;;;;;;;;;;10185038;28;20051;-74
2023/09/07 22:31:36;;;;;;;11.05;4.75;;;;;;;;;;10185384;28;20067;-75
2023/09/07 22:36:28;;;;;;;5.63;4.63;;;;;;;;;;10182979;28;20044;-75
2023/09/07 22:41:20;;;;;;;6.50;4.63;;;;;;;;;;10182614;28;20097;-75
2023/09/07 22:46:12;;;;;;;6.35;5.00;;;;;;;;;;10185307;28;20162;-75
2023/09/07 22:51:04;;;;;;;7.38;5.10;;;;;;;;;;10186759;28;20074;-75
2023/09/07 22:55:57;;;;;;;5.00;4.50;;;;;;;;;;10185285;28;20048;-75
2023/09/07 23:00:51;;;;;;;6.03;5.53;;;;;;;;;;10208842;28;20332;-74
2023/09/07 23:05:43;;;;;;;13.32;5.50;;;;;;;;;;10199596;28;20048;-75
2023/09/07 23:10:36;;;;;;;8.57;4.97;;;;;;;;;;10186524;28;20119;-75
2023/09/07 23:15:29;;;;;;;6.50;5.55;;;;;;;;;;10184485;28;20073;-75
2023/09/07 23:20:21;;;;;;;6.57;5.72;;;;;;;;;;10186885;28;20098;-75
2023/09/07 23:25:13;;;;;;;13.88;7.15;;;;;;;;;;10187615;28;20082;-75
2023/09/07 23:30:06;;;;;;;10.52;7.20;;;;;;;;;;10223856;28;20052;-74
2023/09/07 23:34:58;;;;;;;9.38;7.22;;;;;;;;;;10186427;28;20056;-75
2023/09/07 23:39:51;;;;;;;9.38;7.20;;;;;;;;;;10186649;28;20123;-75
2023/09/07 23:44:43;;;;;;;16.63;8.52;;;;;;;;;;10185195;28;20370;-75
2023/09/07 23:49:35;;;;;;;6.80;6.10;;;;;;;;;;10183695;28;20048;-75
2023/09/07 23:54:27;;;;;;;7.72;6.88;;;;;;;;;;10185381;28;20510;-74
2023/09/07 23:59:19;;;;;;;5.97;5.38;;;;;;;;;;10183574;28;20323;-74
